• Join FlightAware (Why Join?)
  • Login
  • US Flag 
10:13PM EDT


 

Airport Tracker/Info


-or-


 

Live Flight TrackerFlight Track Log ✈ NKS904 ✈ 12-May-2013 ✈ KDFW - KMCO

Flight Track Log - Related Links

Times and Time Zones

All times are in EDT time to prevent confusion due to time zone crossing. See the NKS904 flight status page for this flight to view local times or setup timezone preferences in your user account.

Time Position Orientation Groundspeed Altitude Reporting Facility
EDT Latitude Longitude Course Direction KTS MPH feet Rate Location/Type
01:48PM 32.8660 -97.0300 179° South 167 192 1,700  Level FlightAware
01:49PM 32.8330 -97.0300 180° South 212 244 2,400 1,200 Climbing FlightAware
01:49PM 32.8060 -97.0290 178° South 252 290 2,900 2,280 Climbing FlightAware
01:50PM 32.7660 -97.0300 181° South 267 307 4,500 3,060 Climbing FlightAware
01:50PM 32.7160 -97.0210 171° South 279 321 6,500 2,820 Climbing FlightAware
01:50PM 32.7050 -97.0080 135° Southeast 278 320 7,100 2,400 Climbing FlightAware
01:51PM 32.6970 -96.9840 112° Southeast 284 327 7,700 2,880 Climbing FlightAware
01:51PM 32.6940 -96.9680 103° East 286 329 8,300 2,700 Climbing FlightAware
01:51PM 32.6880 -96.9320 101° East 283 326 9,300 1,380 Climbing FlightAware
01:52PM 32.6920 -96.8740 85° East 281 323 9,700 480 Climbing FlightAware
01:52PM 32.6930 -96.8580 86° East 280 322 9,700 960 Level FlightAware
01:53PM 32.7030 -96.7870 80° East 318 366 10,600 1,440 Climbing FlightAware
01:53PM 32.7280 -96.7180 67° East 347 399 11,800 1,860 Climbing FlightAware
01:54PM 32.7560 -96.6390 67° East 364 419 13,300 2,160 Climbing FlightAware
01:55PM 32.7840 -96.5600 67° East 374 430 14,900 2,040 Climbing FlightAware
01:56PM 32.8150 -96.4740 67° East 390 449 16,200 1,860 Climbing FlightAware
01:56PM 32.8430 -96.3950 67° East 393 452 17,600 1,920 Climbing FlightAware
01:57PM 32.8660 -96.3160 71° East 408 470 18,800 1,680 Climbing FlightAware
01:58PM 32.8680 -96.2070 89° East 421 484 20,000 1,620 Climbing FlightAware
01:58PM 32.8690 -96.1160 89° East 428 493 21,100 1,380 Climbing FlightAware
01:59PM 32.8710 -96.0210 89° East 440 506 21,900 1,200 Climbing FlightAware
02:00PM 32.8720 -95.9180 89° East 451 519 22,800 1,200 Climbing FlightAware
02:01PM 32.8740 -95.8010 89° East 460 529 23,700 1,020 Climbing FlightAware
02:01PM 32.8760 -95.6970 89° East 471 542 24,300 1,020 Climbing FlightAware
02:02PM 32.8776 -95.5681 89° East 478 550 25,200 960 Climbing FlightAware ADS-B
02:03PM 32.8790 -95.4440 89° East 492 566 25,900 900 Climbing FlightAware
02:03PM 32.8797 -95.4142 88° East 496 571 26,100 960 Climbing FlightAware ADS-B
02:03PM 32.8809 -95.3746 88° East 500 575 26,300 480 Climbing FlightAware ADS-B
02:04PM 32.9090 -95.1850 80° East 505 581 26,900 300 Climbing FlightAware
02:05PM 32.9240 -95.0920 79° East 505 581 26,900 1,200 Level FlightAware
02:06PM 32.9430 -94.9560 81° East 528 608 28,500 1,980 Climbing FlightAware
02:06PM 32.9528 -94.8907 80° East 527 606 28,800 840 Climbing FlightAware ADS-B
02:07PM 32.9687 -94.7848 80° East 539 620 29,300 900 Climbing FlightAware ADS-B
02:07PM 32.9880 -94.6540 80° East 543 625 30,100 960 Climbing FlightAware
02:08PM 33.0080 -94.5220 80° East 548 631 30,800 960 Climbing FlightAware
02:09PM 33.0277 -94.3856 80° East 549 632 31,600 600 Climbing FlightAware ADS-B
02:10PM 33.0410 -94.2970 80° East 548 631 31,600 960 Level FlightAware
02:10PM 33.0224 -94.1589 99° East 548 631 32,900 1,500 Climbing FlightAware ADS-B
02:11PM 33.0030 -94.0364 101° East 532 612 33,700 900 Climbing FlightAware ADS-B
02:11PM 32.9892 -93.9489 101° East 535 616 34,000 660 Climbing FlightAware ADS-B
02:12PM 32.9747 -93.8582 101° East 539 620 34,400 780 Climbing FlightAware ADS-B
02:13PM 32.9515 -93.7160 101° East 540 621 35,100 780 Climbing FlightAware ADS-B
02:13PM 32.9371 -93.6273 101° East 541 623 35,500 780 Climbing FlightAware ADS-B
02:14PM 32.9227 -93.5401 101° East 543 625 35,900 780 Climbing FlightAware ADS-B
02:14PM 32.9081 -93.4509 101° East 544 626 36,300 660 Climbing FlightAware ADS-B
02:15PM 32.8896 -93.3400 101° East 544 626 36,700 540 Climbing FlightAware ADS-B
02:15PM 32.8735 -93.2440 101° East 544 626 37,000 240 Climbing FlightAware ADS-B
02:16PM 32.8587 -93.1547 101° East 541 623 37,000  Level FlightAware ADS-B
02:17PM 32.8309 -92.9888 101° East 543 625 37,000  Level FlightAware ADS-B
02:18PM 32.8058 -92.8189 101° East 541 623 37,000  Level Fort Worth Center
02:19PM 32.7764 -92.6450 101° East 541 623 37,000  Level Fort Worth Center
02:20PM 32.7467 -92.4689 101° East 541 623 37,000  Level Fort Worth Center
02:21PM 32.7169 -92.2978 102° East 541 623 37,000  Level Fort Worth Center
02:23PM 32.6414 -91.9139 103° East 560 644 37,000  Level Memphis Center
02:24PM 32.6100 -91.7408 102° East 555 639 37,000  Level Memphis Center
02:25PM 32.5806 -91.5653 101° East 548 631 37,000  Level Memphis Center
02:26PM 32.5486 -91.3900 102° East 548 631 37,000  Level Memphis Center
02:27PM 32.5167 -91.2172 102° East 543 625 37,000  Level Memphis Center
02:28PM 32.4822 -91.0394 103° East 543 625 37,000  Level Memphis Center
02:29PM 32.4517 -90.8669 102° East 543 625 37,000  Level Memphis Center
02:35PM 32.2460 -89.7840 102° East 545 627 37,000  Level FlightAware
02:36PM 32.2130 -89.6150 103° East 543 625 37,000  Level FlightAware
02:37PM 32.1930 -89.5150 103° East 543 625 37,000  Level FlightAware
02:38PM 32.1740 -89.4160 103° East 543 625 37,000  Level FlightAware
02:38PM 32.1550 -89.3180 103° East 543 625 37,000  Level FlightAware
02:39PM 32.1170 -89.1360 104° East 545 627 37,000  Level FlightAware
02:40PM 32.0970 -89.0380 104° East 545 627 37,000  Level FlightAware
02:40PM 32.0780 -88.9390 103° East 545 627 37,000  Level FlightAware
02:41PM 32.0590 -88.8410 103° East 545 627 37,000  Level FlightAware
02:42PM 32.0170 -88.6480 104° East 550 633 37,000  Level FlightAware
02:42PM 31.9920 -88.5290 104° East 550 633 37,000  Level FlightAware
02:43PM 31.9690 -88.4160 103° East 550 633 37,000  Level FlightAware
02:44PM 31.9450 -88.3010 104° East 550 633 37,000  Level FlightAware
02:45PM 31.9160 -88.1670 104° East 550 633 37,000  Level FlightAware
02:46PM 31.8820 -88.0030 104° East 550 633 37,000  Level FlightAware
02:46PM 31.8550 -87.8770 104° East 550 633 37,000  Level FlightAware
02:47PM 31.8350 -87.7830 104° East 550 633 37,000  Level FlightAware
02:48PM 31.8110 -87.6610 103° East 550 633 37,000  Level FlightAware
02:48PM 31.7780 -87.5170 105° East 550 633 37,000  Level FlightAware
02:49PM 31.7500 -87.3920 105° East 550 633 37,000  Level FlightAware
02:50PM 31.7270 -87.2830 104° East 549 632 37,000  Level FlightAware
02:50PM 31.7060 -87.1850 104° East 549 632 37,000  Level FlightAware
02:51PM 31.6850 -87.0860 104° East 549 632 37,000  Level FlightAware
02:52PM 31.6460 -86.9150 105° East 549 632 37,000  Level FlightAware
02:52PM 31.6220 -86.8030 104° East 549 632 37,000  Level FlightAware
02:53PM 31.6010 -86.7050 104° East 549 632 37,000  Level FlightAware
02:54PM 31.5800 -86.6070 104° East 549 632 37,000  Level FlightAware
02:55PM 31.5540 -86.4840 104° East 549 632 37,000  Level FlightAware
02:55PM 31.5330 -86.3850 104° East 549 632 37,000  Level FlightAware
02:56PM 31.5120 -86.2870 104° East 549 632 37,000  Level FlightAware
02:57PM 31.4910 -86.1890 104° East 549 632 37,000  Level FlightAware
02:57PM 31.4650 -86.0660 104° East 549 632 37,000  Level FlightAware
02:58PM 31.4440 -85.9680 104° East 549 632 37,000  Level FlightAware
02:59PM 31.4230 -85.8700 104° East 549 632 37,000  Level FlightAware
02:59PM 31.4020 -85.7710 104° East 549 632 37,000  Level FlightAware
03:00PM 31.3810 -85.6730 104° East 549 632 37,000  Level FlightAware
03:01PM 31.3550 -85.5510 104° East 549 632 37,000  Level FlightAware
03:02PM 31.3340 -85.4520 104° East 549 632 37,000  Level FlightAware
03:03PM 31.2089 -85.0300 104° East 553 636 37,000  Level Jacksonville Center
03:04PM 31.1658 -84.8544 106° East 553 636 37,000  Level Jacksonville Center
03:05PM 31.1267 -84.6836 105° East 553 636 37,000  Level Jacksonville Center
03:11PM 30.7410 -83.7620 105° East 533 613 37,000 -360 Level FlightAware
03:12PM 30.6520 -83.6100 124° Southeast 538 619 34,700 -1,800 Descending FlightAware
03:12PM 30.6010 -83.5190 123° Southeast 540 621 34,000 -540 Descending FlightAware
03:13PM 30.5550 -83.4360 123° Southeast 540 621 34,000  Level FlightAware
03:14PM 30.5090 -83.3540 123° Southeast 540 621 34,000  Level FlightAware
03:14PM 30.4620 -83.2710 123° Southeast 540 621 34,000  Level FlightAware
03:15PM 30.4160 -83.1880 123° Southeast 540 621 34,000  Level FlightAware
03:16PM 30.3580 -83.0850 123° Southeast 540 621 34,000  Level FlightAware
03:17PM 30.3120 -83.0030 123° Southeast 540 621 34,000  Level FlightAware
03:17PM 30.2660 -82.9200 123° Southeast 540 621 34,000  Level FlightAware
03:18PM 30.2200 -82.8380 123° Southeast 540 621 34,000  Level FlightAware
03:19PM 30.1730 -82.7550 123° Southeast 540 621 34,000  Level FlightAware
03:19PM 30.1150 -82.6520 123° Southeast 540 621 34,000  Level FlightAware
03:20PM 30.0690 -82.5700 123° Southeast 540 621 34,000  Level FlightAware
03:21PM 30.0340 -82.5080 123° Southeast 540 621 34,000  Level FlightAware
03:21PM 29.9880 -82.4260 123° Southeast 540 621 34,000 -6,780 Level FlightAware
03:22PM 29.8010 -82.3920 171° South 423 487 24,400 -6,780 Descending FlightAware
03:23PM 29.7300 -82.3660 162° South 423 487 24,400 -480 Level FlightAware
03:23PM 29.6570 -82.3400 163° South 414 476 23,800 -480 Descending FlightAware
03:24PM 29.5850 -82.3130 162° South 414 476 23,800  Level FlightAware
03:25PM 29.5230 -82.2900 162° South 414 476 23,800 -1,920 Level FlightAware
03:26PM 29.4040 -82.2320 157° South 400 460 20,600 -3,240 Descending FlightAware
03:26PM 29.3270 -82.1880 154° Southeast 390 449 18,200 -2,520 Descending FlightAware
03:27PM 29.2690 -82.1540 153° Southeast 377 434 17,100 -1,800 Descending FlightAware
03:28PM 29.2020 -82.1160 154° Southeast 367 422 15,800 -1,740 Descending FlightAware
03:28PM 29.1340 -82.0760 153° Southeast 370 426 14,700 -960 Descending FlightAware
03:29PM 29.0780 -82.0440 153° Southeast 376 433 14,500 -660 Descending FlightAware
03:30PM 28.9870 -81.9910 153° Southeast 372 428 13,600 -1,740 Descending FlightAware
03:31PM 28.9180 -81.9510 153° Southeast 363 418 11,600 -2,280 Descending FlightAware
03:31PM 28.8770 -81.9190 146° Southeast 356 410 11,000 -600 Descending FlightAware
03:32PM 28.8410 -81.8570 124° Southeast 357 411 10,900  Descending FlightAware
03:33PM 28.8000 -81.7850 123° Southeast 360 414 11,000 -720 Climbing FlightAware
03:33PM 28.7620 -81.7210 124° Southeast 333 383 9,900 -1,440 Descending FlightAware
03:34PM 28.7410 -81.6840 123° Southeast 317 365 9,500 -960 Descending FlightAware
03:34PM 28.7250 -81.6510 119° Southeast 315 362 9,100 -900 Descending FlightAware
03:35PM 28.7240 -81.6200 92° East 321 369 8,900 -480 Descending FlightAware
03:35PM 28.7250 -81.6060 85° East 317 365 8,900 120 Level FlightAware
03:35PM 28.7280 -81.5650 85° East 292 336 9,000 120 Climbing FlightAware
03:35PM 28.7220 -81.5370 104° East 274 315 9,000  Level FlightAware
03:36PM 28.6960 -81.5070 135° Southeast 261 300 9,000  Level FlightAware
03:36PM 28.6800 -81.4930 142° Southeast 253 291 9,000  Level FlightAware
03:37PM 28.6450 -81.4610 141° Southeast 253 291 9,000  Level FlightAware
03:37PM 28.6190 -81.4380 142° Southeast 262 302 9,000 -120 Level FlightAware
03:38PM 28.5950 -81.4240 153° Southeast 252 290 8,900  Descending FlightAware
03:38PM 28.5740 -81.4230 178° South 244 281 9,000  Climbing FlightAware
03:38PM 28.5430 -81.4240 182° South 241 277 8,900 -420 Descending FlightAware
03:39PM 28.5220 -81.4240 180° South 241 277 8,700 -900 Descending FlightAware
03:39PM 28.5000 -81.4240 180° South 240 276 8,300 -1,200 Descending FlightAware
03:40PM 28.4590 -81.4240 180° South 239 275 7,600 -1,020 Descending FlightAware
03:40PM 28.4340 -81.4240 180° South 226 260 7,300 -1,020 Descending FlightAware
03:41PM 28.4000 -81.4240 180° South 223 257 6,700 -1,320 Descending FlightAware
03:41PM 28.3780 -81.4240 180° South 229 264 6,200 -1,560 Descending FlightAware
03:42PM 28.3420 -81.4240 180° South 224 258 5,300 -1,500 Descending FlightAware
03:42PM 28.3360 -81.4240 180° South 224 258 5,200 -840 Descending FlightAware
03:42PM 28.3090 -81.4240 180° South 230 265 4,900 -1,020 Descending FlightAware
03:43PM 28.2670 -81.4160 170° South 233 268 4,100 -1,320 Descending FlightAware
03:43PM 28.2540 -81.4060 146° Southeast 229 264 3,700 -1,620 Descending FlightAware
03:43PM 28.2470 -81.3890 115° Southeast 237 273 3,300 -1,500 Descending FlightAware
03:43PM 28.2460 -81.3810 98° East 235 270 3,200 -1,440 Descending FlightAware
03:44PM 28.2530 -81.3600 69° East 232 267 2,700 -1,380 Descending FlightAware
03:44PM 28.2650 -81.3490 39° Northeast 223 257 2,400 -960 Descending FlightAware
03:44PM 28.2920 -81.3330 28° Northeast 215 247 2,000 -480 Descending FlightAware
03:45PM 28.3140 -81.3220 24° Northeast 187 215 2,000 -600 Level FlightAware
03:45PM 28.3380 -81.3210 North 162 186 1,500 -960 Descending FlightAware
03:46PM 28.3470 -81.3210 360° North 159 183 1,300 -900 Descending FlightAware
03:46PM 28.3660 -81.3240 352° North 136 157 900 -780 Descending FlightAware
03:46PM 28.3870 -81.3260 355° North 145 167 600 -660 Descending FlightAware
03:47PM 28.4040 -81.3270 357° North 134 154 300 -720 Descending FlightAware
03:47PM 28.4200 -81.3270 360° North 134 154 -600 Descending FlightAware